Station info - map view · info · telemetry · weather · raw · status · beacons · messages · bulletins · browse · moving · my account
Callsign, ship name or locator: Clear       
It is possible to search using wildcards (*?) after a prefix. Example: OH*
APRS station OE5HPM-9 - show graphs
Map loading...
Comment: Hannes 320d touring
Mic-E message: En route
Location: 48°12.43' N 13°05.63' E - locator JN68NE19GR - show map - static map
4.1 miles Southeast bearing 146° from Braunau am Inn, Politischer Bezirk Braunau am Inn, Upper Austria, Austria [?]
5.4 miles Southeast bearing 139° from Simbach am Inn, Bavaria, Germany
55.2 miles West bearing 263° from Linz, Upper Austria, Austria
70.1 miles East bearing 85° from München (Muenchen), Regierungsbezirk Oberbayern, Bavaria, Germany
Last position: 2018-10-21 07:00:20 EDT (3h23m ago)
2018-10-21 13:00:20 CEST local time at Braunau am Inn, Austria [?]
Altitude: 1270 ft
Course: 214°
Speed: 28 MPH
Last path: OE5HPM-9>TX1R43-1 via qAU,OE2XZR-10
Positions stored: 170743
Packet rate: 22 seconds between packets on average during 399 seconds.
This station is transmitting packets at a high rate, which can cause congestion in the APRS network.
Other SSIDs: OE5HPM OE5HPM-1 OE5HPM-10 OE5HPM-2 OE5HPM-21 OE5HPM-22 OE5HPM-25 OE5HPM-3 OE5HPM-8
Stations near current position of OE5HPM-9 - show more
callsign distance last heard - EDT      callsign distance last heard - EDT
OE5HPM-1073.0 yards 214°2018-10-21 10:23:01 OE5HPM-890.9 yards 206°2018-10-10 23:35:26
OE5HPM-297.4 yards 213°2018-10-21 10:17:53 OE5HPM-2597.4 yards 213°2018-10-16 16:33:52
OE5HPM-2197.4 yards 213°2018-10-21 10:21:43 OE5HPM-3157.3 yards 205°2018-10-21 10:15:24
OE5HPM-1157.3 yards 205°2018-10-21 10:15:24 OE5VCO-80.4 miles 134°2018-10-03 10:48:14
OE5KTM-91.2 miles 328°2018-10-21 09:31:22 OE5KTM1.2 miles 332°2018-10-21 10:20:03
OE5VCO-91.8 miles 155°2018-10-20 06:11:38 OE5UAL2.3 miles 112°2018-10-21 09:16:39
P0620187_3.0 miles 42°2018-09-25 09:20:26 OE5VCO C3.4 miles 161°2018-10-21 10:19:04
OE5VCO-C3.4 miles 161°2018-10-21 10:19:14 OE5VCO3.4 miles 161°2018-09-23 13:19:19
OE5VCO-73.4 miles 161°2018-10-17 13:48:49 OE5VCO-53.4 miles 161°2018-10-14 11:11:11
OE5CFM3.8 miles 163°2018-10-21 10:23:13 OE5CFM-103.8 miles 163°2018-10-21 10:20:14
Stations which heard OE5HPM-9 directly on radio –
callsign pkts first heard - EDT last heard longest (tx => rx) longest at - EDT
OE5XDO-10 36 2018-10-05 02:36:20 2018-10-21 04:42:57 JN68LE > JN68VM 45.0 miles 60° 2018-10-10 09:28:44
OE5XIM-10 3 2018-10-01 13:52:23 2018-10-05 04:34:16 JN68MF > JN78DN 59.7 miles 66° 2018-10-05 02:36:40
OE5XGL-10 2 2018-10-10 09:28:24 2018-10-10 09:38:24 JN68LE > JN67VV 43.8 miles 116° 2018-10-10 09:28:24
OE2XZR-10 138 2018-10-01 13:07:44 2018-10-21 07:00:01 JN68MG > JN67NT 32.2 miles 173° 2018-10-06 03:33:16
OE5XBL-10 220 2018-10-01 13:14:24 2018-10-21 06:59:41 JN68KE > JN68PC 20.2 miles 108° 2018-10-10 09:23:24
DB0PM 2 2018-10-09 10:29:23 2018-10-16 04:08:41 JN68ND > JN57WS 66.8 miles 245° 2018-10-09 10:29:23
OE5XAR 14 2018-10-07 12:15:41 2018-10-20 04:50:31 JN68MF > JN68OB 11.7 miles 154° 2018-10-17 10:05:53
OE2XGR-10 9 2018-10-06 04:11:01 2018-10-10 07:55:24 JN68MF > JN67OH 64.8 miles 172° 2018-10-06 04:11:01
DB0FFL-10 6 2018-10-06 03:23:35 2018-10-16 02:08:53 JN68PC > JN68EO 55.6 miles 307° 2018-10-09 10:42:03
OE5EEP-10 4 2018-10-09 10:39:23 2018-10-20 04:46:31 JN68NE > JN67TX 26.5 miles 128° 2018-10-20 04:46:31
DO2HBA-6 7 2018-10-07 07:58:32 2018-10-16 02:09:53 JN68PC > JN68SS 48.1 miles 14° 2018-10-09 10:41:43
OE5XUL-10 13 2018-10-01 13:09:24 2018-10-21 06:55:01 JN68MG > JN68SE 25.9 miles 100° 2018-10-01 13:18:24
OE3XLR 2 2018-10-20 04:46:50 2018-10-21 06:54:41 JN68NE > JN77TX 114.7 miles 97° 2018-10-20 04:46:50
OE5XHR-10 169 2018-10-01 13:11:24 2018-10-21 06:55:21 JN68KE > JN68XR 60.6 miles 51° 2018-10-10 08:00:04
OE5EBO-10 249 2018-10-01 13:07:04 2018-10-21 06:58:40 JN68PC > JN68KD 20.1 miles 277° 2018-10-09 10:41:23
DB0PAS-10 5 2018-10-01 13:51:23 2018-10-18 11:32:55 JN68KE > JN68SO 41.5 miles 48° 2018-10-10 08:01:04
OE2XWR-10 7 2018-10-01 13:13:04 2018-10-21 06:58:01 JN68PH > JN67IE 84.1 miles 201° 2018-10-20 03:03:49
DB0PAS-1 3 2018-10-01 13:53:03 2018-10-10 09:35:44 JN68LE > JN68SO 39.1 miles 44° 2018-10-10 09:27:44
DB0RDH-10 5 2018-10-01 13:46:02 2018-10-20 04:51:11 JN68NE > JN68KW 52.8 miles 347° 2018-10-20 04:51:11
OE5DXL-11 70 2018-10-01 13:08:25 2018-10-20 04:49:11 JN68PH > JN68MG 14.2 miles 251° 2018-10-20 02:58:34
DO1GER-10 155 2018-10-01 13:06:44 2018-10-21 06:56:21 JN68PC > JN68MG 15.7 miles 312° 2018-10-16 03:59:01

Only position packets which were originated by the station are shown here. The range statistics show some extra long hops, because some digipeaters do not correctly add themselves to the digipeater path. Please check the raw packets.
About this site
This page shows real-time information collected from the Automatic Position Reporting System Internet network (APRS-IS). APRS is used by amateur (ham) radio operators to transmit real-time position information, weather data, telemetry and messages over the radio. A vehicle equipped with a GPS receiver, a VHF transmitter or HF transceiver and a small computer device called a tracker transmits it's location, speed and course in a small data packet, which is then received by a nearby iGate receiving site which forwards the packet on the Internet. Systems connected to the Internet can send information on the APRS-IS without a radio transmitter, or collect and display information transmitted anywhere in the world.
FAQ · Blog · Discussion group · Linking to aprs.fi · AIS sites · Service status · Database statistics · Advertising on aprs.fi · Technical details · API · Change log · Planned changes · Credits and thanks · Terms Of Service · iPhone/iPad APRS